Time;durP1;ratioP1;P1;durP2;ratioP2;P2;SDS_P1;SDS_P2;PMS_P1;PMS_P2;Temp;Humidity;BMP_temperature;BMP_pressure;BME280_temperature;BME280_humidity;BME280_pressure;Samples;Min_cycle;Max_cycle;Signal;HPM_P1;HPM_P2
2021/08/06 00:01:14;;;;;;;0.05;0.05;;;;;;;24.21;47.05;99585.78;4991517;28;20540;-55
2021/08/06 00:04:00;;;;;;;0.10;0.10;;;;;;;24.21;47.10;99588.47;4990996;28;20049;-57
2021/08/06 00:06:46;;;;;;;0.10;0.10;;;;;;;24.18;47.14;99589.63;5004671;28;20078;-56
2021/08/06 00:09:32;;;;;;;0.10;0.10;;;;;;;24.17;47.18;99592.47;4992244;28;20050;-53
2021/08/06 00:12:18;;;;;;;0.00;0.00;;;;;;;24.19;47.07;99595.78;4991895;28;20062;-55
2021/08/06 00:15:05;;;;;;;0.10;0.10;;;;;;;24.17;47.21;99595.16;4991937;28;20086;-56
2021/08/06 00:17:51;;;;;;;0.10;0.10;;;;;;;24.19;47.00;99579.78;4992112;28;20427;-57
2021/08/06 00:20:36;;;;;;;0.30;0.30;;;;;;;24.18;47.09;99578.94;4992102;28;20436;-56
2021/08/06 00:23:22;;;;;;;0.10;0.10;;;;;;;24.17;47.15;99576.47;4991705;28;20058;-56
2021/08/06 00:26:08;;;;;;;0.00;0.00;;;;;;;24.12;47.13;99571.66;4991957;28;20117;-56
2021/08/06 00:28:54;;;;;;;0.10;0.10;;;;;;;24.09;47.21;99565.81;4991804;28;20061;-57
2021/08/06 00:31:40;;;;;;;0.10;0.10;;;;;;;24.16;47.15;99558.78;4991823;28;20050;-56
2021/08/06 00:34:28;;;;;;;0.10;0.10;;;;;;;24.14;47.10;99550.16;4990632;28;20093;-56
2021/08/06 00:37:14;;;;;;;0.03;0.03;;;;;;;24.04;47.41;99534.34;4990462;28;20086;-55
2021/08/06 00:40:04;;;;;;;0.10;0.10;;;;;;;24.06;47.31;99531.50;5004050;28;20567;-56
2021/08/06 00:42:53;;;;;;;0.30;0.30;;;;;;;24.02;47.31;99519.53;4990321;28;20559;-56
2021/08/06 00:45:46;;;;;;;0.10;0.10;;;;;;;24.06;47.31;99527.00;5004094;28;20046;-56
2021/08/06 00:48:35;;;;;;;0.10;0.10;;;;;;;24.06;47.38;99536.81;4990413;28;20042;-57
2021/08/06 00:51:21;;;;;;;0.47;0.47;;;;;;;24.05;47.42;99543.19;4963299;28;20054;-56
2021/08/06 00:54:13;;;;;;;0.08;0.08;;;;;;;24.05;47.38;99545.88;4989942;28;20085;-56
2021/08/06 00:57:13;;;;;;;0.10;0.10;;;;;;;23.99;47.28;99535.88;4989939;28;20050;-57
2021/08/06 00:59:59;;;;;;;0.00;0.00;;;;;;;24.11;47.15;99547.81;4991285;28;20055;-55
2021/08/06 01:03:12;;;;;;;0.20;0.20;;;;;;;24.12;47.19;99541.47;5003590;28;20428;-55
2021/08/06 01:06:11;;;;;;;0.10;0.10;;;;;;;24.12;47.08;99544.16;5003586;28;20516;-56
2021/08/06 01:09:13;;;;;;;0.00;0.00;;;;;;;24.14;47.09;99547.50;4991006;28;20054;-55
2021/08/06 01:12:01;;;;;;;9.13;2.47;;;;;;;24.12;47.11;99541.47;4976543;28;20082;-57
2021/08/06 01:14:50;;;;;;;0.13;0.13;;;;;;;24.09;47.11;99536.47;4977097;28;20424;-57
2021/08/06 01:17:39;;;;;;;0.10;0.10;;;;;;;24.12;47.20;99541.47;5003698;28;20064;-55
2021/08/06 01:20:30;;;;;;;0.03;0.03;;;;;;;23.97;46.96;99511.22;4989447;28;20065;-53
2021/08/06 01:23:37;;;;;;;0.20;0.20;;;;;;;24.08;47.08;99526.81;4989445;28;20054;-53
2021/08/06 01:26:24;;;;;;;0.10;0.10;;;;;;;24.06;47.12;99526.16;4976179;28;20069;-52
2021/08/06 01:29:20;;;;;;;0.00;0.00;;;;;;;24.12;47.03;99525.47;4964102;28;20046;-54
2021/08/06 01:32:09;;;;;;;0.10;0.10;;;;;;;24.07;47.12;99509.16;4989504;28;20417;-53
2021/08/06 01:34:59;;;;;;;0.20;0.20;;;;;;;24.11;47.14;99529.13;4976136;28;20125;-53
2021/08/06 01:37:46;;;;;;;0.20;0.20;;;;;;;24.10;47.02;99522.97;4962482;28;20054;-50
2021/08/06 01:40:41;;;;;;;0.10;0.10;;;;;;;24.10;47.12;99522.13;4989506;28;20129;-53
2021/08/06 01:43:29;;;;;;;0.13;0.13;;;;;;;24.11;46.99;99513.13;4976360;28;20467;-52
2021/08/06 01:46:44;;;;;;;0.10;0.10;;;;;;;24.14;47.08;99520.81;4962640;28;20050;-51
2021/08/06 01:49:32;;;;;;;0.10;0.10;;;;;;;24.14;47.12;99523.47;4957993;28;20050;-53
2021/08/06 01:52:21;;;;;;;0.10;0.10;;;;;;;24.15;47.00;99522.44;4975793;28;20073;-54
2021/08/06 01:55:08;;;;;;;0.10;0.10;;;;;;;24.16;46.99;99526.78;4962618;28;20046;-52
2021/08/06 01:58:03;;;;;;;0.10;0.10;;;;;;;24.17;46.99;99525.78;4989184;28;20042;-54
2021/08/06 02:00:56;;;;;;;0.10;0.10;;;;;;;24.17;46.89;99521.28;4989395;28;20050;-53
2021/08/06 02:03:42;;;;;;;0.00;0.00;;;;;;;24.19;46.92;99524.59;4989212;28;20042;-54
2021/08/06 02:06:51;;;;;;;0.20;0.20;;;;;;;24.19;46.86;99515.75;4990280;28;20050;-54
2021/08/06 02:09:42;;;;;;;0.10;0.10;;;;;;;24.07;46.72;99498.47;4989081;28;20080;-54
2021/08/06 02:12:33;;;;;;;0.22;0.22;;;;;;;24.24;46.74;99516.06;4989830;28;20058;-54
2021/08/06 02:15:23;;;;;;;0.10;0.10;;;;;;;24.25;46.74;99523.88;5002748;28;20046;-53
2021/08/06 02:18:12;;;;;;;0.10;0.10;;;;;;;24.26;46.65;99516.69;4988764;28;20054;-54
2021/08/06 02:21:14;;;;;;;0.10;0.10;;;;;;;24.28;46.61;99509.31;4988668;28;20049;-54
2021/08/06 02:24:05;;;;;;;0.10;0.10;;;;;;;24.24;46.66;99497.38;4991839;28;20058;-51
2021/08/06 02:26:50;;;;;;;0.10;0.10;;;;;;;24.29;46.64;99497.66;4992979;28;20042;-53
2021/08/06 02:29:39;;;;;;;0.10;0.10;;;;;;;24.30;46.58;99496.66;4993326;28;20045;-53
2021/08/06 02:32:27;;;;;;;0.10;0.10;;;;;;;24.21;46.58;99481.72;4979455;28;20053;-54
2021/08/06 02:35:15;;;;;;;0.10;0.10;;;;;;;24.21;46.59;99477.19;4979628;28;20130;-55
2021/08/06 02:38:01;;;;;;;0.10;0.10;;;;;;;24.29;46.68;99484.31;4992834;28;20137;-55
2021/08/06 02:40:48;;;;;;;0.10;0.10;;;;;;;24.29;46.78;99484.31;4992603;28;20132;-55
2021/08/06 02:43:35;;;;;;;0.05;0.05;;;;;;;24.31;46.75;99488.44;4992542;28;20057;-54
2021/08/06 02:46:21;;;;;;;0.10;0.10;;;;;;;24.33;46.58;99485.63;4992604;28;20535;-55
2021/08/06 02:49:07;;;;;;;0.10;0.10;;;;;;;24.24;46.50;99470.69;4993701;28;20061;-53
2021/08/06 02:51:53;;;;;;;0.10;0.10;;;;;;;24.40;46.44;99499.06;4993822;28;20049;-53
2021/08/06 02:54:41;;;;;;;0.08;0.08;;;;;;;24.40;46.45;99494.56;4979029;28;20575;-54
2021/08/06 02:57:27;;;;;;;0.10;0.10;;;;;;;24.44;46.30;99492.34;4993389;28;20046;-51
2021/08/06 03:00:13;;;;;;;0.17;0.17;;;;;;;24.41;46.35;99484.72;4993339;28;20050;-55
2021/08/06 03:03:00;;;;;;;0.10;0.10;;;;;;;24.43;46.30;99483.53;4992413;28;20086;-53
2021/08/06 03:05:46;;;;;;;0.10;0.10;;;;;;;24.44;46.28;99487.84;4992519;28;20653;-56
2021/08/06 03:08:32;;;;;;;0.32;0.32;;;;;;;24.48;46.11;99494.47;4993105;28;20057;-55
2021/08/06 03:11:18;;;;;;;0.20;0.20;;;;;;;24.48;46.11;99475.78;4992164;28;20050;-54
2021/08/06 03:14:04;;;;;;;0.10;0.10;;;;;;;24.48;46.17;99477.63;4978789;28;20519;-56
2021/08/06 03:16:51;;;;;;;0.10;0.10;;;;;;;24.55;46.03;99483.88;5005811;28;20512;-51
2021/08/06 03:19:37;;;;;;;0.10;0.10;;;;;;;24.56;46.01;99490.91;4992073;28;20035;-53
2021/08/06 03:22:23;;;;;;;0.13;0.13;;;;;;;24.58;45.93;99495.03;5005699;28;20050;-54
2021/08/06 03:25:09;;;;;;;0.10;0.10;;;;;;;24.64;45.84;99499.63;4993143;28;20137;-54
2021/08/06 03:27:56;;;;;;;0.10;0.10;;;;;;;24.67;45.74;99498.47;5005654;28;20058;-55
2021/08/06 03:30:45;;;;;;;0.43;0.43;;;;;;;24.69;45.63;99497.28;4992184;28;20117;-53
2021/08/06 03:33:31;;;;;;;0.10;0.10;;;;;;;24.76;45.50;99506.22;4991613;28;20688;-53
2021/08/06 03:36:18;;;;;;;0.10;0.10;;;;;;;24.80;45.20;99502.13;4991897;28;20077;-52
2021/08/06 03:39:05;;;;;;;0.00;0.00;;;;;;;24.82;45.31;99497.50;5005563;28;20047;-55
2021/08/06 03:41:51;;;;;;;0.00;0.00;;;;;;;24.90;45.31;99498.41;5005398;28;20484;-53
2021/08/06 03:44:37;;;;;;;0.10;0.10;;;;;;;24.95;45.04;99490.66;4991155;28;20439;-54
2021/08/06 03:47:24;;;;;;;0.10;0.10;;;;;;;25.02;44.86;99486.25;4991364;28;20137;-55
2021/08/06 03:50:10;;;;;;;0.10;0.10;;;;;;;25.04;44.85;99487.72;4992915;28;20116;-56
2021/08/06 03:52:58;;;;;;;0.10;0.10;;;;;;;25.10;44.78;99486.97;5004889;28;20042;-53
2021/08/06 03:55:44;;;;;;;0.60;0.25;;;;;;;24.98;44.71;99475.09;4977958;28;20046;-56
2021/08/06 03:58:31;;;;;;;0.10;0.10;;;;;;;25.08;44.69;99491.69;4977530;28;20142;-56
2021/08/06 04:01:17;;;;;;;0.10;0.10;;;;;;;25.12;44.64;99478.78;4991168;28;20132;-53
2021/08/06 04:04:04;;;;;;;0.20;0.20;;;;;;;25.16;44.59;99485.41;4992320;28;20065;-56
2021/08/06 04:06:50;;;;;;;0.10;0.10;;;;;;;25.18;44.57;99488.72;4991103;28;20062;-55
2021/08/06 04:09:36;;;;;;;0.20;0.20;;;;;;;25.18;44.64;99480.69;5004216;28;20057;-55
2021/08/06 04:12:21;;;;;;;0.10;0.10;;;;;;;25.24;44.50;99482.63;4992021;28;20046;-53
2021/08/06 04:15:08;;;;;;;0.10;0.10;;;;;;;25.27;44.20;99479.56;4990846;28;20516;-55
2021/08/06 04:17:54;;;;;;;0.10;0.10;;;;;;;25.32;44.31;99482.53;4992135;28;20065;-52
2021/08/06 04:20:40;;;;;;;0.10;0.10;;;;;;;25.38;44.01;99479.09;4990603;28;20050;-56
2021/08/06 04:23:26;;;;;;;0.10;0.10;;;;;;;25.43;43.90;99479.34;4990597;28;20046;-55
2021/08/06 04:26:12;;;;;;;0.10;0.10;;;;;;;25.31;44.03;99454.13;4990954;28;20053;-53
2021/08/06 04:28:58;;;;;;;0.10;0.10;;;;;;;25.46;44.02;99478.97;4977272;28;20101;-56
2021/08/06 04:31:44;;;;;;;0.15;0.15;;;;;;;25.46;43.96;99476.28;4991786;28;20054;-54
2021/08/06 04:34:30;;;;;;;0.10;0.10;;;;;;;25.48;43.84;99482.31;4991295;28;20050;-54
2021/08/06 04:37:16;;;;;;;0.10;0.10;;;;;;;25.47;43.98;99491.31;4991527;28;20050;-54
2021/08/06 04:40:02;;;;;;;0.10;0.10;;;;;;;25.46;43.97;99492.34;4991586;28;20500;-55
2021/08/06 04:42:49;;;;;;;0.10;0.10;;;;;;;25.36;43.83;99465.06;5004072;28;20054;-55
2021/08/06 04:45:35;;;;;;;0.10;0.10;;;;;;;25.45;44.07;99498.72;5003150;28;20042;-56
2021/08/06 04:48:21;;;;;;;0.10;0.10;;;;;;;25.42;44.20;99498.25;4991314;28;20050;-55
2021/08/06 04:51:08;;;;;;;0.10;0.10;;;;;;;25.42;44.07;99510.59;4990315;28;20113;-54
2021/08/06 04:53:54;;;;;;;0.00;0.00;;;;;;;25.37;44.16;99506.84;4991233;28;20082;-54
2021/08/06 04:56:40;;;;;;;0.00;0.00;;;;;;;25.37;44.28;99507.66;4976695;28;20054;-54
2021/08/06 04:59:27;;;;;;;0.30;0.30;;;;;;;25.22;44.32;99498.84;5003526;28;20427;-54
2021/08/06 05:02:13;;;;;;;0.10;0.10;;;;;;;25.32;44.42;99510.09;4991369;28;20141;-53
2021/08/06 05:05:01;;;;;;;0.17;0.17;;;;;;;25.29;44.55;99506.97;4989878;28;20065;-55
2021/08/06 05:07:50;;;;;;;0.10;0.10;;;;;;;25.26;44.64;99518.81;4991108;28;20618;-54
2021/08/06 05:10:37;;;;;;;2.53;1.27;;;;;;;25.19;44.78;99514.44;4989756;28;20054;-55
2021/08/06 05:13:23;;;;;;;0.10;0.10;;;;;;;25.20;44.92;99521.41;4989940;28;20054;-54
2021/08/06 05:16:10;;;;;;;0.20;0.20;;;;;;;25.18;44.90;99520.78;4989868;28;20046;-55
2021/08/06 05:18:56;;;;;;;0.10;0.10;;;;;;;25.15;44.96;99515.81;5003332;28;20085;-56
2021/08/06 05:21:42;;;;;;;0.10;0.10;;;;;;;25.08;44.95;99512.22;4990559;28;20054;-56
2021/08/06 05:24:28;;;;;;;0.00;0.00;;;;;;;25.13;45.05;99525.88;4975814;28;20075;-53
2021/08/06 05:27:14;;;;;;;0.20;0.20;;;;;;;25.15;44.96;99516.66;4990883;28;20050;-55
2021/08/06 05:30:00;;;;;;;0.10;0.10;;;;;;;25.15;45.04;99513.13;4990721;28;20453;-55
2021/08/06 05:32:46;;;;;;;0.25;0.25;;;;;;;25.11;45.07;99504.66;4989712;28;20081;-56
2021/08/06 05:35:34;;;;;;;0.10;0.10;;;;;;;25.19;44.84;99512.59;4990443;28;20059;-54
2021/08/06 05:38:22;;;;;;;0.10;0.10;;;;;;;25.25;44.87;99513.69;4989328;28;20046;-55
2021/08/06 05:40:48;;;;;;;0.10;0.10;;;;;;;25.26;44.64;99508.13;5005787;28;20050;-55
2021/08/06 05:43:17;;;;;;;0.33;0.33;;;;;;;25.31;44.68;99507.59;4989228;28;20153;-55
2021/08/06 05:45:43;;;;;;;0.32;0.32;;;;;;;25.35;44.62;99514.22;4989061;28;20289;-56
2021/08/06 05:48:12;;;;;;;0.10;0.10;;;;;;;25.36;44.74;99515.84;5005523;28;20081;-54
2021/08/06 05:50:39;;;;;;;;;;;;;;;25.37;44.62;99514.84;4989534;28;20046;-55
2021/08/06 05:53:06;;;;;;;0.00;0.00;;;;;;;25.35;44.65;99519.56;4989191;28;19929;-54
2021/08/06 05:55:32;;;;;;;0.30;0.30;;;;;;;25.30;44.70;99516.63;4990199;28;20221;-53
2021/08/06 05:58:03;;;;;;;0.10;0.10;;;;;;;25.32;44.78;99515.44;5004542;28;20447;-54
2021/08/06 06:00:29;;;;;;;0.10;0.10;;;;;;;25.33;44.74;99517.06;4988499;28;20051;-54
2021/08/06 06:03:05;;;;;;;0.10;0.10;;;;;;;25.33;44.53;99494.84;4973010;28;20141;-55
2021/08/06 06:05:53;;;;;;;0.00;0.00;;;;;;;25.45;44.34;99493.38;4989000;28;20054;-55
2021/08/06 06:08:19;;;;;;;2.08;0.20;;;;;;;25.58;43.99;99512.28;4988930;28;20463;-51
2021/08/06 06:10:46;;;;;;;0.10;0.10;;;;;;;25.64;43.96;99503.50;4989966;28;20054;-52
2021/08/06 06:13:12;;;;;;;0.20;0.20;;;;;;;25.70;43.92;99500.06;4972800;28;20058;-54
2021/08/06 06:15:38;;;;;;;0.10;0.10;;;;;;;25.80;43.94;99500.56;5004819;28;20050;-53
2021/08/06 06:18:04;;;;;;;0.35;0.32;;;;;;;25.93;43.43;99510.56;4988912;28;20057;-54
2021/08/06 06:20:30;;;;;;;0.10;0.10;;;;;;;26.07;43.21;99503.50;5004563;28;20050;-52
2021/08/06 06:22:58;;;;;;;0.10;0.10;;;;;;;26.13;42.80;99495.53;4988678;28;20057;-55
2021/08/06 06:25:24;;;;;;;0.10;0.10;;;;;;;26.26;42.65;99502.88;5004821;28;20054;-55
2021/08/06 06:28:02;;;;;;;0.25;0.25;;;;;;;26.30;42.83;99504.16;4988871;28;20136;-54
2021/08/06 06:30:35;;;;;;;0.10;0.10;;;;;;;26.30;42.76;99504.16;5004616;28;20042;-53
2021/08/06 06:33:01;;;;;;;0.20;0.20;;;;;;;26.29;42.84;99503.31;4988948;28;20532;-55
2021/08/06 06:35:28;;;;;;;0.10;0.10;;;;;;;26.23;42.52;99495.25;4988872;28;20054;-56
2021/08/06 06:37:56;;;;;;;0.13;0.13;;;;;;;26.29;42.58;99502.50;4988837;28;20077;-59
2021/08/06 06:40:23;;;;;;;0.10;0.10;;;;;;;26.35;42.52;99504.38;4988672;28;20141;-54
2021/08/06 06:42:51;;;;;;;0.10;0.10;;;;;;;26.32;42.57;99481.53;4990061;28;20050;-55
2021/08/06 06:45:19;;;;;;;0.20;0.20;;;;;;;26.47;42.41;99497.50;4988787;28;20065;-53
2021/08/06 06:47:49;;;;;;;0.10;0.10;;;;;;;26.59;42.33;99503.13;4988408;28;20065;-52
2021/08/06 06:50:18;;;;;;;0.20;0.20;;;;;;;26.65;42.09;99511.22;5004933;28;20575;-57
2021/08/06 06:52:44;;;;;;;0.10;0.10;;;;;;;26.69;41.73;99504.44;5004427;28;20129;-55
2021/08/06 06:55:10;;;;;;;0.20;0.20;;;;;;;26.69;42.00;99503.63;4989005;28;20042;-53
2021/08/06 06:58:08;;;;;;;0.10;0.10;;;;;;;26.69;42.00;99517.00;5004756;28;20108;-59
2021/08/06 07:00:35;;;;;;;0.10;0.10;;;;;;;26.66;41.84;99504.84;4971696;28;20137;-55
2021/08/06 07:03:09;;;;;;;0.10;0.10;;;;;;;26.74;41.39;99517.25;4958625;28;20058;-56
2021/08/06 07:05:36;;;;;;;0.10;0.10;;;;;;;26.77;41.38;99511.50;4957176;28;20097;-53
2021/08/06 07:08:04;;;;;;;0.10;0.10;;;;;;;26.81;41.60;99523.50;4988923;28;20050;-54
2021/08/06 07:10:34;;;;;;;0.10;0.10;;;;;;;26.81;41.53;99523.50;4976376;28;20050;-55
2021/08/06 07:13:01;;;;;;;0.10;0.10;;;;;;;26.79;41.53;99507.63;4994699;28;20054;-57
2021/08/06 07:15:27;;;;;;;0.10;0.10;;;;;;;26.75;41.79;99509.03;5008601;28;20508;-53
2021/08/06 07:17:53;;;;;;;0.20;0.20;;;;;;;26.76;41.67;99518.72;4992661;28;20086;-55
2021/08/06 07:20:23;;;;;;;0.10;0.10;;;;;;;26.81;41.52;99513.63;4992876;28;20050;-55
2021/08/06 07:22:51;;;;;;;0.20;0.20;;;;;;;26.90;41.67;99511.59;4993743;28;20571;-53
2021/08/06 07:25:17;;;;;;;0.40;0.40;;;;;;;26.98;41.21;99510.63;4992274;28;20046;-55
2021/08/06 07:27:45;;;;;;;0.10;0.10;;;;;;;27.03;41.35;99510.88;4992232;28;20057;-58
2021/08/06 07:30:14;;;;;;;0.10;0.10;;;;;;;27.02;41.30;99509.22;4960158;28;20146;-59
2021/08/06 07:32:42;;;;;;;0.10;0.10;;;;;;;26.97;41.71;99512.47;4992423;28;20085;-56
2021/08/06 07:35:10;;;;;;;0.10;0.10;;;;;;;26.87;41.66;99502.13;4993556;28;20085;-59
2021/08/06 07:37:37;;;;;;;0.10;0.10;;;;;;;26.97;41.20;99506.28;4992008;28;20050;-55
2021/08/06 07:40:08;;;;;;;0.10;0.10;;;;;;;27.10;41.04;99507.19;4993912;28;20054;-58
2021/08/06 07:42:35;;;;;;;0.10;0.10;;;;;;;27.28;40.86;99506.66;5008404;28;20520;-57
2021/08/06 07:45:02;;;;;;;0.10;0.10;;;;;;;27.36;40.45;99487.69;4992100;28;20475;-54
2021/08/06 07:47:29;;;;;;;1.10;0.47;;;;;;;27.48;40.51;99491.50;4993062;28;20047;-56
2021/08/06 07:49:55;;;;;;;0.10;0.10;;;;;;;27.43;40.42;99485.88;4991870;28;20050;-56
2021/08/06 07:52:24;;;;;;;0.10;0.10;;;;;;;27.40;40.76;99491.63;4991667;28;20046;-59
2021/08/06 07:54:50;;;;;;;0.20;0.20;;;;;;;27.24;40.88;99498.19;4990757;28;20046;-52
2021/08/06 07:57:17;;;;;;;0.15;0.15;;;;;;;27.08;40.97;99495.84;4991199;28;20050;-52
2021/08/06 07:59:43;;;;;;;0.10;0.10;;;;;;;26.95;41.40;99481.53;4991074;28;20078;-53
2021/08/06 08:02:09;;;;;;;0.10;0.10;;;;;;;26.84;41.89;99483.75;4991140;28;20054;-55
2021/08/06 08:04:35;;;;;;;0.20;0.20;;;;;;;26.73;42.45;99478.91;5006855;28;20124;-53
2021/08/06 08:07:02;;;;;;;0.10;0.10;;;;;;;26.66;42.30;99482.59;4992648;28;20081;-54
2021/08/06 08:09:30;;;;;;;0.10;0.10;;;;;;;26.60;42.59;99478.84;4990778;28;20046;-60
2021/08/06 08:11:56;;;;;;;0.10;0.10;;;;;;;26.50;42.85;99482.88;4990867;28;20046;-52
2021/08/06 08:14:23;;;;;;;0.10;0.10;;;;;;;26.45;43.02;99496.03;4990871;28;20116;-53
2021/08/06 08:16:49;;;;;;;0.10;0.10;;;;;;;26.41;42.89;99496.41;4990716;28;20134;-57
2021/08/06 08:19:18;;;;;;;0.20;0.20;;;;;;;26.41;43.04;99500.94;4992172;28;20054;-56
2021/08/06 08:21:45;;;;;;;0.10;0.10;;;;;;;26.37;42.94;99478.28;5005858;28;20502;-55
2021/08/06 08:24:12;;;;;;;0.10;0.10;;;;;;;26.56;42.95;99487.47;4990364;28;20153;-55
2021/08/06 08:26:39;;;;;;;0.15;0.15;;;;;;;26.83;42.34;99487.44;4990209;28;20487;-56
2021/08/06 08:29:05;;;;;;;0.10;0.10;;;;;;;27.13;42.03;99481.81;4991689;28;20112;-53
2021/08/06 08:31:32;;;;;;;0.10;0.10;;;;;;;27.37;41.38;99487.50;4990409;28;20125;-56
2021/08/06 08:33:58;;;;;;;0.10;0.10;;;;;;;27.49;40.89;99478.94;4991560;28;20054;-55
2021/08/06 08:36:24;;;;;;;0.17;0.17;;;;;;;27.54;40.64;99482.66;5006809;28;20057;-55
2021/08/06 08:38:59;;;;;;;0.10;0.10;;;;;;;27.64;41.01;99488.47;4973802;28;20042;-53
2021/08/06 08:41:26;;;;;;;0.15;0.15;;;;;;;27.69;40.52;99480.63;4990307;28;20097;-55
2021/08/06 08:43:55;;;;;;;0.10;0.10;;;;;;;27.88;40.42;99484.34;4973854;28;20054;-55
2021/08/06 08:46:26;;;;;;;0.10;0.10;;;;;;;28.01;40.17;99483.56;4990265;28;20125;-54
2021/08/06 08:48:58;;;;;;;0.40;0.40;;;;;;;28.04;40.16;99472.41;4989819;28;20527;-52
2021/08/06 08:51:26;;;;;;;0.10;0.10;;;;;;;28.15;40.14;99477.19;4974681;28;20112;-53
2021/08/06 08:53:52;;;;;;;0.35;0.35;;;;;;;28.21;39.97;99487.09;4973637;28;20133;-52
2021/08/06 08:56:19;;;;;;;0.10;0.10;;;;;;;28.23;40.45;99479.69;4973696;28;20046;-53
2021/08/06 08:58:45;;;;;;;0.13;0.13;;;;;;;28.21;40.24;99482.56;4990913;28;20050;-53
2021/08/06 09:01:11;;;;;;;0.20;0.20;;;;;;;28.20;40.29;99485.47;4973635;28;20472;-54
2021/08/06 09:03:38;;;;;;;0.95;0.95;;;;;;;28.19;40.56;99483.81;4989427;28;20062;-51
2021/08/06 09:06:08;;;;;;;0.10;0.10;;;;;;;28.18;40.96;99487.50;5006108;28;20053;-54
2021/08/06 09:08:35;;;;;;;0.10;0.10;;;;;;;28.13;40.80;99487.31;5005767;28;20054;-51
2021/08/06 09:11:33;;;;;;;;;;;;;;;28.04;41.13;99485.84;4959860;28;20540;-57
2021/08/06 09:14:22;;;;;;;0.15;0.15;;;;;;;27.90;41.65;99493.88;4960336;28;19999;-57
2021/08/06 09:17:01;;;;;;;0.00;0.00;;;;;;;27.82;41.46;99486.00;4989324;28;20046;-54
2021/08/06 09:19:29;;;;;;;0.10;0.10;;;;;;;27.78;41.59;99487.44;4990922;28;20056;-56
2021/08/06 09:22:11;;;;;;;0.00;0.00;;;;;;;27.77;41.31;99490.34;4988972;28;20066;-56
2021/08/06 09:25:03;;;;;;;0.00;0.00;;;;;;;27.74;41.40;99488.91;4990596;28;20101;-54
2021/08/06 09:27:32;;;;;;;0.10;0.10;;;;;;;27.70;41.43;99487.66;4990941;28;20060;-55
2021/08/06 09:29:58;;;;;;;0.10;0.10;;;;;;;27.66;41.82;99485.56;4990711;28;20054;-55
2021/08/06 09:32:25;;;;;;;0.10;0.10;;;;;;;27.62;41.69;99495.03;4990642;28;20054;-54
2021/08/06 09:34:51;;;;;;;0.10;0.10;;;;;;;27.67;41.38;99497.94;4990345;28;20050;-56
2021/08/06 09:37:23;;;;;;;0.10;0.10;;;;;;;27.67;41.38;99501.47;4990723;28;20046;-54
2021/08/06 09:39:54;;;;;;;0.28;0.28;;;;;;;27.67;41.25;99514.06;4990325;28;20050;-53
2021/08/06 09:42:24;;;;;;;0.10;0.10;;;;;;;27.60;41.59;99516.72;4990684;28;20137;-53
2021/08/06 09:45:12;;;;;;;0.10;0.10;;;;;;;27.45;41.61;99517.91;4990142;28;20065;-51
2021/08/06 09:47:39;;;;;;;0.20;0.20;;;;;;;27.33;41.98;99522.97;4990309;28;20516;-54
2021/08/06 09:50:08;;;;;;;0.03;0.03;;;;;;;27.20;42.43;99523.75;4990343;28;20050;-54
2021/08/06 09:52:45;;;;;;;0.20;0.20;;;;;;;27.04;42.58;99512.50;4990264;28;20050;-50
2021/08/06 09:55:16;;;;;;;0.13;0.13;;;;;;;27.00;42.70;99521.97;4989328;28;20054;-53
2021/08/06 09:57:45;;;;;;;0.10;0.10;;;;;;;26.91;43.25;99514.09;4973398;28;20050;-53
2021/08/06 10:00:15;;;;;;;0.00;0.00;;;;;;;26.75;43.30;99501.00;4990194;28;20051;-54
2021/08/06 10:02:42;;;;;;;0.10;0.10;;;;;;;26.73;43.77;99510.25;4988991;28;20050;-55
2021/08/06 10:05:10;;;;;;;0.20;0.20;;;;;;;26.68;43.61;99513.50;4989903;28;20117;-54
2021/08/06 10:07:42;;;;;;;0.20;0.20;;;;;;;26.64;43.74;99517.59;4990108;28;20057;-56
2021/08/06 10:10:13;;;;;;;0.10;0.10;;;;;;;26.62;43.67;99519.66;4988751;28;20072;-56
2021/08/06 10:12:39;;;;;;;0.10;0.10;;;;;;;26.63;43.73;99520.47;4990047;28;20050;-55
2021/08/06 10:15:05;;;;;;;0.38;0.38;;;;;;;26.64;43.79;99530.16;4990091;28;20101;-55
2021/08/06 10:17:31;;;;;;;0.10;0.10;;;;;;;26.61;43.89;99523.34;4990210;28;20700;-55
2021/08/06 10:19:57;;;;;;;0.10;0.10;;;;;;;26.59;43.76;99522.72;4989640;28;20157;-54
2021/08/06 10:22:23;;;;;;;0.20;0.20;;;;;;;26.58;44.12;99518.38;4990241;28;20468;-56
2021/08/06 10:24:52;;;;;;;0.52;0.52;;;;;;;26.58;43.94;99512.19;4988374;28;20646;-56
2021/08/06 10:27:23;;;;;;;0.10;0.10;;;;;;;26.53;43.98;99520.00;4989001;28;20062;-55
2021/08/06 10:30:20;;;;;;;0.13;0.13;;;;;;;26.42;44.36;99510.63;4989655;28;20436;-57
2021/08/06 10:33:26;;;;;;;0.10;0.10;;;;;;;26.34;44.99;99508.09;4978280;28;20432;-53
2021/08/06 10:36:01;;;;;;;0.10;0.10;;;;;;;26.27;45.46;99518.75;5004812;28;20455;-53
2021/08/06 10:38:41;;;;;;;0.10;0.10;;;;;;;26.20;45.49;99512.53;4988843;28;20062;-53
2021/08/06 10:41:15;;;;;;;0.10;0.10;;;;;;;26.19;45.68;99508.19;4989908;28;20058;-54
2021/08/06 10:44:05;;;;;;;0.10;0.10;;;;;;;26.18;45.47;99501.16;4990294;28;20432;-54
2021/08/06 10:46:51;;;;;;;0.10;0.10;;;;;;;26.15;46.04;99498.84;4993865;28;20058;-52
2021/08/06 10:49:17;;;;;;;0.20;0.20;;;;;;;26.23;45.33;99496.06;4993700;28;20508;-55
2021/08/06 10:51:45;;;;;;;0.10;0.10;;;;;;;26.23;45.62;99497.91;4993585;28;20050;-54
2021/08/06 10:54:27;;;;;;;0.10;0.10;;;;;;;26.18;46.02;99492.28;4976165;28;20082;-55
2021/08/06 10:57:16;;;;;;;0.15;0.15;;;;;;;26.10;46.23;99489.75;4993482;28;20137;-54
2021/08/06 10:59:43;;;;;;;0.20;0.20;;;;;;;26.03;46.46;99486.16;4993380;28;20589;-54
2021/08/06 11:02:37;;;;;;;0.10;0.10;;;;;;;25.98;46.37;99502.78;4993625;28;20058;-55
2021/08/06 11:05:28;;;;;;;0.10;0.10;;;;;;;25.93;47.32;99497.19;4964103;28;20096;-55
2021/08/06 11:07:55;;;;;;;0.20;0.20;;;;;;;25.88;47.60;99496.97;4992039;28;20047;-56
2021/08/06 11:10:46;;;;;;;0.10;0.10;;;;;;;25.87;47.89;99503.31;4993532;28;20046;-55
2021/08/06 11:13:51;;;;;;;2.08;0.40;;;;;;;25.88;47.68;99505.78;4993474;28;20332;-55
2021/08/06 11:16:17;;;;;;;0.45;0.30;;;;;;;25.87;47.76;99488.09;4962796;28;20050;-56
2021/08/06 11:18:44;;;;;;;0.10;0.10;;;;;;;25.97;47.76;99501.16;4993117;28;20085;-56
2021/08/06 11:21:10;;;;;;;0.20;0.20;;;;;;;26.07;47.99;99492.81;4992980;28;20059;-54
2021/08/06 11:23:36;;;;;;;0.13;0.13;;;;;;;26.16;47.63;99491.63;4993170;28;20088;-56
2021/08/06 11:26:09;;;;;;;0.10;0.10;;;;;;;26.33;47.37;99487.72;4991661;28;20046;-52
2021/08/06 11:28:35;;;;;;;0.10;0.10;;;;;;;26.42;46.74;99492.72;4991889;28;20049;-54
2021/08/06 11:31:02;;;;;;;0.20;0.20;;;;;;;26.48;46.54;99480.41;4991414;28;20424;-54
2021/08/06 11:33:29;;;;;;;0.10;0.10;;;;;;;26.51;46.45;99473.81;4975438;28;20133;-53
2021/08/06 11:35:56;;;;;;;0.03;0.03;;;;;;;26.50;46.67;99464.16;4975239;28;20536;-56
2021/08/06 11:38:25;;;;;;;0.10;0.10;;;;;;;26.34;47.06;99441.19;4992885;28;20123;-54
2021/08/06 11:40:54;;;;;;;0.15;0.15;;;;;;;26.42;46.88;99465.94;4992425;28;20413;-54
2021/08/06 11:43:21;;;;;;;0.40;0.40;;;;;;;26.36;46.96;99461.38;4992792;28;20046;-52
2021/08/06 11:45:55;;;;;;;0.10;0.10;;;;;;;26.28;47.19;99463.34;4992260;28;20141;-53
2021/08/06 11:48:21;;;;;;;0.00;0.00;;;;;;;26.23;47.22;99457.75;4975260;28;20140;-54
2021/08/06 11:50:49;;;;;;;0.00;0.00;;;;;;;26.19;47.74;99456.50;4992360;28;20178;-54
2021/08/06 11:53:16;;;;;;;0.13;0.13;;;;;;;26.16;47.77;99456.84;4992554;28;20141;-54
2021/08/06 11:55:42;;;;;;;0.10;0.10;;;;;;;26.13;47.76;99451.88;4990704;28;20054;-53
2021/08/06 11:58:08;;;;;;;0.10;0.10;;;;;;;26.14;47.81;99453.56;4992556;28;20050;-54
2021/08/06 12:00:35;;;;;;;0.30;0.30;;;;;;;26.09;47.67;99459.47;4992462;28;20057;-51
2021/08/06 12:03:04;;;;;;;0.10;0.10;;;;;;;26.07;47.71;99460.69;4990825;28;20043;-54
2021/08/06 12:05:30;;;;;;;0.10;0.10;;;;;;;25.97;47.60;99444.13;4992328;28;20058;-54
2021/08/06 12:07:57;;;;;;;0.30;0.30;;;;;;;26.04;47.63;99459.22;4990858;28;20057;-52
2021/08/06 12:10:25;;;;;;;0.15;0.15;;;;;;;26.02;48.01;99450.56;4990866;28;20050;-55
2021/08/06 12:12:52;;;;;;;0.10;0.10;;;;;;;26.01;48.23;99456.13;4991980;28;20133;-51
2021/08/06 12:15:21;;;;;;;0.00;0.00;;;;;;;26.01;47.86;99445.41;4992043;28;20054;-54
2021/08/06 12:17:47;;;;;;;0.00;0.00;;;;;;;26.03;47.61;99448.72;4991920;28;20073;-55
2021/08/06 12:20:35;;;;;;;0.45;0.30;;;;;;;26.07;47.67;99452.66;4991839;28;20504;-53
2021/08/06 12:23:01;;;;;;;0.10;0.10;;;;;;;26.11;47.29;99456.63;4990514;28;20543;-52
2021/08/06 12:25:27;;;;;;;0.20;0.20;;;;;;;26.13;47.38;99449.22;4990538;28;20046;-53